createdAt,value
2019-05-20T00:03:05.408Z,16.97
2019-05-20T00:07:09.991Z,16.90
2019-05-20T00:11:14.217Z,17.80
2019-05-20T00:15:18.521Z,16.67
2019-05-20T00:19:22.743Z,20.57
2019-05-20T00:23:26.964Z,17.83
2019-05-20T00:27:31.187Z,19.17
2019-05-20T00:31:35.402Z,20.53
2019-05-20T00:35:39.621Z,20.73
2019-05-20T00:39:43.856Z,19.47
2019-05-20T00:43:48.051Z,19.47
2019-05-20T00:47:52.470Z,19.50
2019-05-20T00:51:56.697Z,18.63
2019-05-20T00:56:00.911Z,18.97
2019-05-20T01:00:06.288Z,16.23
2019-05-20T01:04:10.481Z,17.07
2019-05-20T01:08:14.703Z,14.80
2019-05-20T01:12:18.943Z,17.23
2019-05-20T01:16:23.248Z,14.53
2019-05-20T01:20:27.567Z,15.93
2019-05-20T01:24:31.972Z,16.93
2019-05-20T01:28:36.193Z,18.70
2019-05-20T01:32:40.406Z,17.53
2019-05-20T01:36:44.627Z,17.30
2019-05-20T01:40:48.842Z,13.13
2019-05-20T01:44:53.104Z,14.83
2019-05-20T01:48:57.325Z,15.80
2019-05-20T01:53:01.564Z,17.00
2019-05-20T01:57:05.796Z,16.10
2019-05-20T02:01:10.047Z,20.70
2019-05-20T02:05:14.371Z,21.30
2019-05-20T02:09:18.572Z,22.70
2019-05-20T02:13:24.440Z,22.93
2019-05-20T02:17:28.734Z,23.33
2019-05-20T02:21:32.950Z,22.00
2019-05-20T02:25:37.158Z,21.10
2019-05-20T02:29:41.376Z,19.93
2019-05-20T02:33:51.462Z,21.93
2019-05-20T02:37:51.470Z,22.73
2019-05-20T02:41:55.688Z,21.97
2019-05-20T02:45:59.907Z,18.47
2019-05-20T02:50:04.165Z,19.53
2019-05-20T02:54:08.384Z,17.67
2019-05-20T02:58:12.615Z,16.93
2019-05-20T03:02:16.826Z,18.30
2019-05-20T03:06:21.043Z,18.63
2019-05-20T03:10:25.264Z,19.00
2019-05-20T03:14:29.535Z,20.60
2019-05-20T03:18:33.763Z,21.57
2019-05-20T03:22:37.994Z,20.17
2019-05-20T03:26:42.223Z,22.77
2019-05-20T03:30:46.413Z,21.33
2019-05-20T03:34:58.676Z,23.53
2019-05-20T03:38:56.491Z,19.20
2019-05-20T03:43:00.712Z,18.60
2019-05-20T03:47:04.963Z,18.73
2019-05-20T03:51:09.172Z,19.47
2019-05-20T03:55:13.393Z,19.00
2019-05-20T03:59:17.652Z,18.67
2019-05-20T04:03:21.881Z,21.23
2019-05-20T04:07:26.123Z,29.80
2019-05-20T04:11:30.389Z,27.67
2019-05-20T04:15:34.612Z,29.37
2019-05-20T04:19:38.827Z,30.80
2019-05-20T04:23:43.138Z,32.33
2019-05-20T04:27:47.431Z,36.60
2019-05-20T04:31:51.932Z,35.07
2019-05-20T04:35:56.213Z,34.20
2019-05-20T04:40:00.445Z,33.10
2019-05-20T04:44:04.688Z,34.13
2019-05-20T04:48:13.174Z,33.80
2019-05-20T04:52:14.887Z,35.50
2019-05-20T04:56:19.176Z,36.97
2019-05-20T05:00:58.393Z,35.17
2019-05-20T05:05:02.944Z,36.30
2019-05-20T05:09:08.286Z,36.20
2019-05-20T05:13:12.479Z,35.20
2019-05-20T05:17:16.736Z,39.67
2019-05-20T05:21:20.947Z,37.60
2019-05-20T05:25:25.203Z,37.00
2019-05-20T05:29:29.418Z,38.07
2019-05-20T05:33:33.640Z,38.73
2019-05-20T05:37:37.849Z,38.03
2019-05-20T05:41:42.060Z,37.70
2019-05-20T05:45:46.306Z,38.33
2019-05-20T05:49:50.534Z,40.75
2019-05-20T05:53:54.758Z,49.18
2019-05-20T05:57:58.999Z,40.83
2019-05-20T06:02:03.267Z,40.80
2019-05-20T06:06:13.140Z,39.87
2019-05-20T06:10:14.899Z,40.67
2019-05-20T06:14:19.138Z,40.43
2019-05-20T06:18:23.431Z,39.10
2019-05-20T06:22:27.635Z,37.13
2019-05-20T06:26:31.998Z,36.17
2019-05-20T06:30:44.200Z,33.73
2019-05-20T06:34:48.441Z,32.93
2019-05-20T06:39:17.785Z,34.53
2019-05-20T06:43:21.971Z,34.83
2019-05-20T06:47:26.227Z,33.43
2019-05-20T06:51:30.441Z,34.08
2019-05-20T06:55:34.806Z,33.60
2019-05-20T06:59:39.049Z,32.25
2019-05-20T07:03:43.283Z,31.80
2019-05-20T07:07:47.484Z,33.77
2019-05-20T07:11:53.033Z,33.90
2019-05-20T07:15:57.566Z,34.40
2019-05-20T07:20:01.783Z,34.93
2019-05-20T07:24:06.088Z,34.25
2019-05-20T07:28:10.290Z,33.23
2019-05-20T07:32:14.511Z,34.20
2019-05-20T07:36:18.730Z,36.20
2019-05-20T07:40:32.041Z,35.33
2019-05-20T07:44:36.283Z,36.53
2019-05-20T07:48:41.338Z,36.77
2019-05-20T07:52:45.935Z,37.53
2019-05-20T07:56:53.552Z,37.33
2019-05-20T08:00:57.763Z,36.40
2019-05-20T08:05:02.198Z,38.10
2019-05-20T08:09:07.643Z,36.60
2019-05-20T08:13:11.860Z,34.90
2019-05-20T08:17:16.071Z,37.07
2019-05-20T08:21:20.313Z,39.08
2019-05-20T08:25:24.545Z,38.93
2019-05-20T08:29:28.744Z,36.47
2019-05-20T08:33:32.969Z,36.03
2019-05-20T08:37:45.335Z,36.33
2019-05-20T08:41:43.130Z,37.35
2019-05-20T08:45:47.403Z,36.80
2019-05-20T08:49:51.933Z,36.57
2019-05-20T08:53:56.429Z,36.85
2019-05-20T08:58:00.652Z,38.17
2019-05-20T09:02:04.866Z,37.23
2019-05-20T09:06:09.088Z,38.33
2019-05-20T09:10:13.512Z,41.27
2019-05-20T09:14:17.726Z,41.20
2019-05-20T09:18:21.959Z,43.53
2019-05-20T09:22:26.190Z,47.60
2019-05-20T09:26:30.399Z,48.07
2019-05-20T09:30:34.596Z,49.07
2019-05-20T09:34:38.815Z,47.30
2019-05-20T09:38:43.067Z,43.23
2019-05-20T09:42:47.283Z,42.53
2019-05-20T09:46:51.624Z,40.07
2019-05-20T09:50:55.848Z,39.97
2019-05-20T09:55:00.107Z,39.70
2019-05-20T09:59:04.356Z,38.93
2019-05-20T10:03:08.589Z,40.87
2019-05-20T10:07:12.812Z,37.90
2019-05-20T10:11:17.040Z,35.53
2019-05-20T10:15:21.444Z,34.70
2019-05-20T10:19:25.699Z,30.80
2019-05-20T10:23:29.887Z,30.67
2019-05-20T10:27:34.107Z,31.80
2019-05-20T10:31:38.326Z,29.77
2019-05-20T10:35:42.546Z,30.63
2019-05-20T10:39:46.746Z,29.47
2019-05-20T10:43:50.980Z,28.27
2019-05-20T10:47:55.224Z,28.52
2019-05-20T10:51:59.455Z,27.80
2019-05-20T10:56:03.711Z,27.10
2019-05-20T11:00:09.089Z,26.73
2019-05-20T11:04:13.316Z,27.70
2019-05-20T11:08:17.552Z,28.40
2019-05-20T11:12:21.791Z,27.17
2019-05-20T11:16:25.990Z,29.25
2019-05-20T11:20:30.254Z,27.98
2019-05-20T11:24:34.295Z,27.98
2019-05-20T11:28:38.515Z,27.73
2019-05-20T11:32:43.035Z,29.72
2019-05-20T11:36:47.361Z,28.23
2019-05-20T11:40:51.591Z,29.98
2019-05-20T11:44:55.839Z,29.60
2019-05-20T11:49:00.056Z,31.33
2019-05-20T11:53:04.362Z,31.17
2019-05-20T11:57:09.197Z,31.48
2019-05-20T12:01:13.495Z,31.73
2019-05-20T12:05:18.353Z,32.42
2019-05-20T12:09:22.563Z,32.65
2019-05-20T12:13:26.912Z,31.77
2019-05-20T12:17:31.132Z,33.00
2019-05-20T12:21:35.326Z,32.70
2019-05-20T12:25:39.561Z,30.65
2019-05-20T12:29:43.771Z,30.97
2019-05-20T12:33:48.000Z,28.60
2019-05-20T12:37:52.219Z,21.50
2019-05-20T12:41:56.448Z,23.75
2019-05-20T12:46:00.703Z,22.42
2019-05-20T12:50:05.356Z,21.27
2019-05-20T12:54:09.580Z,21.82
2019-05-20T12:58:13.835Z,18.35
2019-05-20T13:02:18.073Z,19.92
2019-05-20T13:06:22.392Z,20.52
2019-05-20T13:10:31.442Z,18.55
2019-05-20T13:14:32.624Z,19.30
2019-05-20T13:18:36.921Z,17.98
2019-05-20T13:22:41.122Z,19.80
2019-05-20T13:26:45.628Z,18.35
2019-05-20T13:30:50.228Z,20.32
2019-05-20T13:34:54.700Z,19.35
2019-05-20T13:38:58.939Z,18.52
2019-05-20T13:43:03.145Z,17.50
2019-05-20T13:47:07.443Z,18.10
2019-05-20T13:51:11.659Z,17.00
2019-05-20T13:55:15.936Z,15.38
2019-05-20T13:59:20.184Z,17.67
2019-05-20T14:03:24.405Z,16.42
2019-05-20T14:07:28.730Z,16.25
2019-05-20T14:11:34.881Z,14.03
2019-05-20T14:15:38.959Z,13.55
2019-05-20T14:19:43.174Z,14.18
2019-05-20T14:23:47.422Z,12.13
2019-05-20T14:27:51.646Z,11.63
2019-05-20T14:31:55.968Z,11.85
2019-05-20T14:36:00.214Z,12.25
2019-05-20T14:40:04.804Z,11.18
2019-05-20T14:44:09.062Z,10.53
2019-05-20T14:48:13.278Z,10.93
2019-05-20T14:52:17.538Z,10.60
2019-05-20T14:56:21.791Z,10.23
2019-05-20T15:00:26.875Z,9.98
2019-05-20T15:04:31.098Z,10.05
2019-05-20T15:08:35.418Z,9.55
2019-05-20T15:12:39.630Z,9.83
2019-05-20T15:16:43.859Z,9.60
2019-05-20T15:20:48.087Z,9.38
2019-05-20T15:24:52.408Z,9.65
2019-05-20T15:28:56.627Z,10.50
2019-05-20T15:33:00.856Z,11.48
2019-05-20T15:37:05.219Z,10.72
2019-05-20T15:41:09.521Z,10.03
2019-05-20T15:45:13.954Z,10.18
2019-05-20T15:49:18.353Z,9.78
2019-05-20T15:53:22.678Z,9.75
2019-05-20T15:57:26.958Z,9.38
2019-05-20T16:01:31.200Z,8.85
2019-05-20T16:05:35.412Z,8.78
2019-05-20T16:09:39.619Z,9.70
2019-05-20T16:13:43.859Z,10.60
2019-05-20T16:17:48.766Z,10.43
2019-05-20T16:21:53.230Z,10.20
2019-05-20T16:25:57.497Z,11.05
2019-05-20T16:30:06.710Z,9.78
2019-05-20T16:34:07.604Z,9.55
2019-05-20T16:38:11.829Z,10.67
2019-05-20T16:42:16.041Z,9.80
2019-05-20T16:46:20.276Z,9.67
2019-05-20T16:50:24.505Z,9.63
2019-05-20T16:54:28.808Z,9.68
2019-05-20T16:58:33.019Z,8.90
2019-05-20T17:02:37.333Z,8.77
2019-05-20T17:06:41.487Z,9.53
2019-05-20T17:10:45.708Z,10.47
2019-05-20T17:14:49.924Z,12.00
2019-05-20T17:18:59.959Z,12.30
2019-05-20T17:23:04.183Z,12.70
2019-05-20T17:27:08.468Z,15.10
2019-05-20T17:31:12.679Z,15.08
2019-05-20T17:35:16.879Z,17.12
2019-05-20T17:39:21.098Z,18.10
2019-05-20T17:43:25.345Z,19.75
2019-05-20T17:47:29.588Z,20.65
2019-05-20T17:51:33.806Z,21.73
2019-05-20T17:55:38.018Z,21.50
2019-05-20T17:59:42.310Z,23.27
2019-05-20T18:03:46.564Z,24.17
2019-05-20T18:07:50.787Z,23.17
2019-05-20T18:11:55.096Z,24.50
2019-05-20T18:15:59.295Z,25.30
2019-05-20T18:20:04.159Z,24.40
2019-05-20T18:24:08.372Z,23.57
2019-05-20T18:28:12.615Z,23.87
2019-05-20T18:32:16.906Z,24.07
2019-05-20T18:36:21.137Z,22.27
2019-05-20T18:40:25.347Z,22.57
2019-05-20T18:44:29.593Z,23.00
2019-05-20T18:48:33.816Z,23.20
2019-05-20T18:52:38.034Z,21.43
2019-05-20T18:56:42.465Z,21.97
2019-05-20T19:00:46.759Z,22.23
2019-05-20T19:04:51.023Z,21.70
2019-05-20T19:08:55.358Z,21.13
2019-05-20T19:12:59.589Z,23.03
2019-05-20T19:17:03.800Z,23.40
2019-05-20T19:21:08.000Z,21.63
2019-05-20T19:25:12.432Z,21.60
2019-05-20T19:29:16.712Z,22.33
2019-05-20T19:33:21.019Z,23.20
2019-05-20T19:37:25.323Z,22.57
2019-05-20T19:41:29.529Z,20.50
2019-05-20T19:45:33.780Z,20.60
2019-05-20T19:49:38.007Z,21.70
2019-05-20T19:53:42.230Z,22.70
2019-05-20T19:57:46.456Z,24.93
2019-05-20T20:01:50.660Z,25.27
2019-05-20T20:05:54.891Z,24.50
2019-05-20T20:09:58.552Z,25.67
2019-05-20T20:14:02.809Z,26.50
2019-05-20T20:18:07.065Z,25.50
2019-05-20T20:22:11.278Z,24.90
2019-05-20T20:26:15.577Z,23.37
2019-05-20T20:30:19.817Z,24.00
2019-05-20T20:34:26.218Z,22.53
2019-05-20T20:38:30.431Z,22.87
2019-05-20T20:42:34.708Z,22.73
2019-05-20T20:46:40.697Z,21.77
2019-05-20T20:50:44.861Z,22.40
2019-05-20T20:54:49.091Z,21.97
2019-05-20T20:58:53.400Z,22.77
2019-05-20T21:02:57.619Z,23.00
2019-05-20T21:07:01.856Z,23.27
2019-05-20T21:11:06.246Z,21.80
2019-05-20T21:15:11.143Z,21.93
2019-05-20T21:19:15.388Z,20.93
2019-05-20T21:23:19.611Z,22.50
2019-05-20T21:27:23.836Z,23.83
2019-05-20T21:31:28.082Z,23.93
2019-05-20T21:35:32.429Z,23.57
2019-05-20T21:39:36.653Z,25.07
2019-05-20T21:43:40.877Z,23.13
2019-05-20T21:47:49.529Z,22.70
2019-05-20T21:51:53.687Z,23.33
2019-05-20T21:55:57.895Z,21.30
2019-05-20T22:00:02.115Z,23.40
2019-05-20T22:04:06.407Z,23.67
2019-05-20T22:08:10.607Z,23.33
2019-05-20T22:12:14.830Z,21.77
2019-05-20T22:16:19.066Z,23.90
2019-05-20T22:20:23.278Z,24.47
2019-05-20T22:24:27.582Z,24.03
2019-05-20T22:28:31.772Z,23.83
2019-05-20T22:32:36.004Z,23.23
2019-05-20T22:36:40.230Z,24.17
2019-05-20T22:40:44.521Z,22.77
2019-05-20T22:44:48.770Z,24.67
2019-05-20T22:48:52.983Z,25.07
2019-05-20T22:52:57.204Z,25.63
2019-05-20T22:57:01.450Z,25.63
2019-05-20T23:01:05.662Z,25.17
2019-05-20T23:05:09.934Z,26.40
2019-05-20T23:09:14.932Z,26.83
2019-05-20T23:13:19.371Z,25.10
2019-05-20T23:17:23.611Z,25.37
2019-05-20T23:21:27.812Z,25.97
2019-05-20T23:25:32.290Z,26.13
2019-05-20T23:29:36.494Z,26.53
2019-05-20T23:33:40.708Z,26.53
2019-05-20T23:37:44.926Z,25.63
2019-05-20T23:41:49.147Z,25.77
2019-05-20T23:45:56.618Z,26.43
2019-05-20T23:50:00.836Z,25.60
2019-05-20T23:54:05.035Z,28.27
2019-05-20T23:58:09.272Z,28.97
